sensor_id;sensor_type;location;lat;lon;timestamp;temperature;humidity
17405;DHT22;8820;54.604;18.226;2023-10-31T00:20:37;10.70;99.90
17405;DHT22;8820;54.604;18.226;2023-10-31T00:27:22;10.70;99.90
17405;DHT22;8820;54.604;18.226;2023-10-31T00:30:17;10.70;99.90
17405;DHT22;8820;54.604;18.226;2023-10-31T00:33:02;10.80;99.90
17405;DHT22;8820;54.604;18.226;2023-10-31T00:36:01;10.90;99.90
17405;DHT22;8820;54.604;18.226;2023-10-31T00:38:43;10.80;99.90
17405;DHT22;8820;54.604;18.226;2023-10-31T00:41:23;10.90;99.90
17405;DHT22;8820;54.604;18.226;2023-10-31T00:44:44;10.90;99.90
17405;DHT22;8820;54.604;18.226;2023-10-31T00:47:28;10.90;99.90
17405;DHT22;8820;54.604;18.226;2023-10-31T00:50:35;10.90;99.90
17405;DHT22;8820;54.604;18.226;2023-10-31T00:54:03;10.80;99.90
17405;DHT22;8820;54.604;18.226;2023-10-31T00:57:09;10.80;99.90
17405;DHT22;8820;54.604;18.226;2023-10-31T01:00:02;10.70;99.90
17405;DHT22;8820;54.604;18.226;2023-10-31T01:02:59;10.70;99.90
17405;DHT22;8820;54.604;18.226;2023-10-31T01:06:05;10.80;99.90
17405;DHT22;8820;54.604;18.226;2023-10-31T01:09:12;10.90;99.90
17405;DHT22;8820;54.604;18.226;2023-10-31T01:12:10;10.80;99.90
17405;DHT22;8820;54.604;18.226;2023-10-31T01:15:24;10.80;99.90
17405;DHT22;8820;54.604;18.226;2023-10-31T01:18:07;10.80;99.90
17405;DHT22;8820;54.604;18.226;2023-10-31T01:20:35;10.90;99.90
17405;DHT22;8820;54.604;18.226;2023-10-31T01:23:04;10.90;99.90
17405;DHT22;8820;54.604;18.226;2023-10-31T01:28:51;10.90;99.90
17405;DHT22;8820;54.604;18.226;2023-10-31T01:32:00;11.00;99.90
17405;DHT22;8820;54.604;18.226;2023-10-31T01:34:50;11.00;99.90
17405;DHT22;8820;54.604;18.226;2023-10-31T01:37:21;11.00;99.90
17405;DHT22;8820;54.604;18.226;2023-10-31T01:39:56;11.00;99.90
17405;DHT22;8820;54.604;18.226;2023-10-31T01:42:40;11.00;99.90
17405;DHT22;8820;54.604;18.226;2023-10-31T01:45:09;11.00;99.90
17405;DHT22;8820;54.604;18.226;2023-10-31T01:47:48;11.10;99.90
17405;DHT22;8820;54.604;18.226;2023-10-31T01:50:22;11.00;99.90
17405;DHT22;8820;54.604;18.226;2023-10-31T01:52:59;11.00;99.90
17405;DHT22;8820;54.604;18.226;2023-10-31T01:55:49;11.00;99.90
17405;DHT22;8820;54.604;18.226;2023-10-31T01:58:50;11.00;99.90
17405;DHT22;8820;54.604;18.226;2023-10-31T02:01:23;11.00;99.90
17405;DHT22;8820;54.604;18.226;2023-10-31T02:04:21;10.90;99.90
17405;DHT22;8820;54.604;18.226;2023-10-31T02:07:23;10.80;99.90
17405;DHT22;8820;54.604;18.226;2023-10-31T02:10:36;10.80;99.90
17405;DHT22;8820;54.604;18.226;2023-10-31T02:13:15;10.80;99.90
17405;DHT22;8820;54.604;18.226;2023-10-31T02:15:59;10.90;99.90
17405;DHT22;8820;54.604;18.226;2023-10-31T02:22:04;10.90;99.90
17405;DHT22;8820;54.604;18.226;2023-10-31T02:28:50;10.90;99.90
17405;DHT22;8820;54.604;18.226;2023-10-31T02:38:15;11.00;99.90
17405;DHT22;8820;54.604;18.226;2023-10-31T02:43:42;11.00;99.90
17405;DHT22;8820;54.604;18.226;2023-10-31T02:49:21;11.10;99.90
17405;DHT22;8820;54.604;18.226;2023-10-31T02:55:31;11.10;99.90
17405;DHT22;8820;54.604;18.226;2023-10-31T03:02:20;11.20;99.90
17405;DHT22;8820;54.604;18.226;2023-10-31T03:05:22;11.20;99.90
17405;DHT22;8820;54.604;18.226;2023-10-31T03:11:20;11.30;99.90
17405;DHT22;8820;54.604;18.226;2023-10-31T03:14:10;11.20;99.90
17405;DHT22;8820;54.604;18.226;2023-10-31T03:16:51;11.20;99.90
17405;DHT22;8820;54.604;18.226;2023-10-31T03:19:48;11.30;99.90
17405;DHT22;8820;54.604;18.226;2023-10-31T03:22:36;11.20;99.90
17405;DHT22;8820;54.604;18.226;2023-10-31T03:25:40;11.30;99.90
17405;DHT22;8820;54.604;18.226;2023-10-31T03:28:57;11.20;99.90
17405;DHT22;8820;54.604;18.226;2023-10-31T03:32:09;11.20;99.90
17405;DHT22;8820;54.604;18.226;2023-10-31T03:35:49;11.20;99.90
17405;DHT22;8820;54.604;18.226;2023-10-31T03:38:57;11.30;99.90
17405;DHT22;8820;54.604;18.226;2023-10-31T03:42:48;11.30;99.90
17405;DHT22;8820;54.604;18.226;2023-10-31T03:45:30;11.30;99.90
17405;DHT22;8820;54.604;18.226;2023-10-31T03:48:04;11.40;99.90
17405;DHT22;8820;54.604;18.226;2023-10-31T03:51:29;11.40;99.90
17405;DHT22;8820;54.604;18.226;2023-10-31T03:55:15;11.30;99.90
17405;DHT22;8820;54.604;18.226;2023-10-31T03:58:42;11.30;99.90
17405;DHT22;8820;54.604;18.226;2023-10-31T04:02:01;11.30;99.90
17405;DHT22;8820;54.604;18.226;2023-10-31T04:04:55;11.30;99.90
17405;DHT22;8820;54.604;18.226;2023-10-31T04:08:04;11.30;99.90
17405;DHT22;8820;54.604;18.226;2023-10-31T04:10:45;11.30;99.90
17405;DHT22;8820;54.604;18.226;2023-10-31T04:13:41;11.30;99.90
17405;DHT22;8820;54.604;18.226;2023-10-31T04:16:48;11.30;99.90
17405;DHT22;8820;54.604;18.226;2023-10-31T04:20:10;11.40;99.90
17405;DHT22;8820;54.604;18.226;2023-10-31T04:22:38;11.40;99.90
17405;DHT22;8820;54.604;18.226;2023-10-31T04:25:12;11.40;99.90
17405;DHT22;8820;54.604;18.226;2023-10-31T04:27:57;11.40;99.90
17405;DHT22;8820;54.604;18.226;2023-10-31T04:30:39;11.40;99.90
17405;DHT22;8820;54.604;18.226;2023-10-31T04:33:45;11.40;99.90
17405;DHT22;8820;54.604;18.226;2023-10-31T04:37:03;11.40;99.90
17405;DHT22;8820;54.604;18.226;2023-10-31T04:39:56;11.40;99.90
17405;DHT22;8820;54.604;18.226;2023-10-31T04:42:32;11.50;99.90
17405;DHT22;8820;54.604;18.226;2023-10-31T04:45:05;11.50;99.90
17405;DHT22;8820;54.604;18.226;2023-10-31T04:47:37;11.50;99.90
17405;DHT22;8820;54.604;18.226;2023-10-31T04:50:21;11.60;99.90
17405;DHT22;8820;54.604;18.226;2023-10-31T04:53:12;11.50;99.90
17405;DHT22;8820;54.604;18.226;2023-10-31T04:55:45;11.50;99.90
17405;DHT22;8820;54.604;18.226;2023-10-31T04:59:00;11.50;99.90
17405;DHT22;8820;54.604;18.226;2023-10-31T05:01:48;11.60;99.90
17405;DHT22;8820;54.604;18.226;2023-10-31T05:04:27;11.60;99.90
17405;DHT22;8820;54.604;18.226;2023-10-31T05:07:31;11.60;99.90
17405;DHT22;8820;54.604;18.226;2023-10-31T05:10:10;11.50;99.90
17405;DHT22;8820;54.604;18.226;2023-10-31T05:13:09;11.50;99.90
17405;DHT22;8820;54.604;18.226;2023-10-31T05:15:40;11.50;99.90
17405;DHT22;8820;54.604;18.226;2023-10-31T05:18:20;11.60;99.90
17405;DHT22;8820;54.604;18.226;2023-10-31T05:21:26;11.60;99.90
17405;DHT22;8820;54.604;18.226;2023-10-31T05:24:17;11.60;99.90
17405;DHT22;8820;54.604;18.226;2023-10-31T05:27:11;11.60;99.90
17405;DHT22;8820;54.604;18.226;2023-10-31T05:30:00;11.60;99.90
17405;DHT22;8820;54.604;18.226;2023-10-31T05:33:22;11.60;99.90
17405;DHT22;8820;54.604;18.226;2023-10-31T05:39:47;11.70;99.90
17405;DHT22;8820;54.604;18.226;2023-10-31T05:42:31;11.70;99.90
17405;DHT22;8820;54.604;18.226;2023-10-31T05:45:04;11.70;99.90
17405;DHT22;8820;54.604;18.226;2023-10-31T05:48:09;11.80;99.90
17405;DHT22;8820;54.604;18.226;2023-10-31T05:50:51;11.70;99.90
17405;DHT22;8820;54.604;18.226;2023-10-31T05:53:44;11.70;99.90
17405;DHT22;8820;54.604;18.226;2023-10-31T05:56:34;11.80;99.90
17405;DHT22;8820;54.604;18.226;2023-10-31T05:59:34;11.80;99.90
17405;DHT22;8820;54.604;18.226;2023-10-31T06:02:42;11.80;99.90
17405;DHT22;8820;54.604;18.226;2023-10-31T06:05:48;11.90;99.90
17405;DHT22;8820;54.604;18.226;2023-10-31T06:08:22;11.90;99.90
17405;DHT22;8820;54.604;18.226;2023-10-31T06:11:44;11.90;99.90
17405;DHT22;8820;54.604;18.226;2023-10-31T06:18:49;12.00;99.90
17405;DHT22;8820;54.604;18.226;2023-10-31T06:25:29;11.90;99.90
17405;DHT22;8820;54.604;18.226;2023-10-31T06:28:18;12.00;99.90
17405;DHT22;8820;54.604;18.226;2023-10-31T06:34:40;12.10;99.90
17405;DHT22;8820;54.604;18.226;2023-10-31T06:37:46;12.10;99.90
17405;DHT22;8820;54.604;18.226;2023-10-31T06:40:18;12.10;99.90
17405;DHT22;8820;54.604;18.226;2023-10-31T06:43:15;12.20;99.90
17405;DHT22;8820;54.604;18.226;2023-10-31T06:49:34;12.20;99.90
17405;DHT22;8820;54.604;18.226;2023-10-31T06:52:06;12.20;99.90
17405;DHT22;8820;54.604;18.226;2023-10-31T06:54:45;12.20;99.90
17405;DHT22;8820;54.604;18.226;2023-10-31T06:57:46;12.30;99.90
17405;DHT22;8820;54.604;18.226;2023-10-31T07:00:24;12.20;99.90
17405;DHT22;8820;54.604;18.226;2023-10-31T07:07:24;12.20;99.90
17405;DHT22;8820;54.604;18.226;2023-10-31T07:10:05;12.30;99.90
17405;DHT22;8820;54.604;18.226;2023-10-31T07:13:08;12.40;99.90
17405;DHT22;8820;54.604;18.226;2023-10-31T07:15:57;12.40;99.90
17405;DHT22;8820;54.604;18.226;2023-10-31T07:18:55;12.40;99.90
17405;DHT22;8820;54.604;18.226;2023-10-31T07:21:44;12.60;99.90
17405;DHT22;8820;54.604;18.226;2023-10-31T07:26:03;12.60;99.90
17405;DHT22;8820;54.604;18.226;2023-10-31T07:28:53;12.60;99.90
17405;DHT22;8820;54.604;18.226;2023-10-31T07:35:30;12.70;99.90
17405;DHT22;8820;54.604;18.226;2023-10-31T07:38:01;12.80;99.90
17405;DHT22;8820;54.604;18.226;2023-10-31T07:40:32;12.80;99.90
17405;DHT22;8820;54.604;18.226;2023-10-31T07:43:00;12.80;99.90
17405;DHT22;8820;54.604;18.226;2023-10-31T07:45:38;12.90;99.90
17405;DHT22;8820;54.604;18.226;2023-10-31T07:48:27;12.90;99.90
17405;DHT22;8820;54.604;18.226;2023-10-31T07:50:56;13.00;99.90
17405;DHT22;8820;54.604;18.226;2023-10-31T07:53:26;13.00;99.90
17405;DHT22;8820;54.604;18.226;2023-10-31T07:56:05;13.10;99.90
17405;DHT22;8820;54.604;18.226;2023-10-31T07:58:55;13.20;99.90
17405;DHT22;8820;54.604;18.226;2023-10-31T08:01:44;13.20;99.90
17405;DHT22;8820;54.604;18.226;2023-10-31T08:04:41;13.30;99.90
17405;DHT22;8820;54.604;18.226;2023-10-31T08:07:43;13.30;99.90
17405;DHT22;8820;54.604;18.226;2023-10-31T08:10:41;13.30;99.90
17405;DHT22;8820;54.604;18.226;2023-10-31T08:13:39;13.30;99.90
17405;DHT22;8820;54.604;18.226;2023-10-31T08:16:30;13.30;99.90
17405;DHT22;8820;54.604;18.226;2023-10-31T08:19:24;13.30;99.90
17405;DHT22;8820;54.604;18.226;2023-10-31T08:22:10;13.30;99.90
17405;DHT22;8820;54.604;18.226;2023-10-31T08:25:01;13.30;99.90
17405;DHT22;8820;54.604;18.226;2023-10-31T08:27:34;13.40;99.90
17405;DHT22;8820;54.604;18.226;2023-10-31T08:30:17;13.40;99.90
17405;DHT22;8820;54.604;18.226;2023-10-31T08:33:22;13.50;99.90
17405;DHT22;8820;54.604;18.226;2023-10-31T08:36:51;13.50;99.90
17405;DHT22;8820;54.604;18.226;2023-10-31T08:43:16;13.50;99.90
17405;DHT22;8820;54.604;18.226;2023-10-31T08:46:23;13.50;99.90
17405;DHT22;8820;54.604;18.226;2023-10-31T08:49:25;13.40;99.90
17405;DHT22;8820;54.604;18.226;2023-10-31T08:51:55;13.40;99.90
17405;DHT22;8820;54.604;18.226;2023-10-31T08:54:24;13.40;99.90
17405;DHT22;8820;54.604;18.226;2023-10-31T08:56:52;13.40;99.90
17405;DHT22;8820;54.604;18.226;2023-10-31T08:59:38;13.30;99.90
17405;DHT22;8820;54.604;18.226;2023-10-31T09:06:25;13.40;99.90
17405;DHT22;8820;54.604;18.226;2023-10-31T09:09:08;13.50;99.90
17405;DHT22;8820;54.604;18.226;2023-10-31T09:12:25;13.50;99.90
17405;DHT22;8820;54.604;18.226;2023-10-31T09:15:02;13.70;99.90
17405;DHT22;8820;54.604;18.226;2023-10-31T09:18:34;13.70;99.90
17405;DHT22;8820;54.604;18.226;2023-10-31T09:24:20;13.80;99.90
17405;DHT22;8820;54.604;18.226;2023-10-31T09:26:49;13.80;99.90
17405;DHT22;8820;54.604;18.226;2023-10-31T09:29:49;13.90;99.90
17405;DHT22;8820;54.604;18.226;2023-10-31T09:32:26;13.80;99.90
17405;DHT22;8820;54.604;18.226;2023-10-31T09:34:55;13.90;99.90
17405;DHT22;8820;54.604;18.226;2023-10-31T09:37:33;14.00;99.90
17405;DHT22;8820;54.604;18.226;2023-10-31T09:40:41;14.00;99.90
17405;DHT22;8820;54.604;18.226;2023-10-31T09:43:12;13.90;99.90
17405;DHT22;8820;54.604;18.226;2023-10-31T09:46:05;13.90;99.90
17405;DHT22;8820;54.604;18.226;2023-10-31T09:49:15;13.80;99.90
17405;DHT22;8820;54.604;18.226;2023-10-31T09:55:34;13.80;99.90
17405;DHT22;8820;54.604;18.226;2023-10-31T09:58:27;13.80;99.90
17405;DHT22;8820;54.604;18.226;2023-10-31T10:03:55;13.80;99.90
17405;DHT22;8820;54.604;18.226;2023-10-31T10:07:07;13.80;99.90
17405;DHT22;8820;54.604;18.226;2023-10-31T10:21:09;14.00;99.90
17405;DHT22;8820;54.604;18.226;2023-10-31T10:24:07;14.00;99.90
17405;DHT22;8820;54.604;18.226;2023-10-31T10:26:50;14.10;99.90
17405;DHT22;8820;54.604;18.226;2023-10-31T10:29:24;14.10;99.90
17405;DHT22;8820;54.604;18.226;2023-10-31T10:36:16;14.20;99.90
17405;DHT22;8820;54.604;18.226;2023-10-31T10:38:48;14.30;99.90
17405;DHT22;8820;54.604;18.226;2023-10-31T10:41:26;14.20;99.90
17405;DHT22;8820;54.604;18.226;2023-10-31T10:44:06;14.30;99.90
17405;DHT22;8820;54.604;18.226;2023-10-31T10:46:58;14.30;99.90
17405;DHT22;8820;54.604;18.226;2023-10-31T10:49:49;14.30;99.90
17405;DHT22;8820;54.604;18.226;2023-10-31T10:55:44;14.30;99.90
17405;DHT22;8820;54.604;18.226;2023-10-31T10:58:27;14.40;99.90
17405;DHT22;8820;54.604;18.226;2023-10-31T11:00:59;14.30;99.90
17405;DHT22;8820;54.604;18.226;2023-10-31T11:05:05;14.30;99.90
17405;DHT22;8820;54.604;18.226;2023-10-31T11:07:32;14.40;99.90
17405;DHT22;8820;54.604;18.226;2023-10-31T11:10:02;14.50;99.90
17405;DHT22;8820;54.604;18.226;2023-10-31T11:17:00;14.50;99.90
17405;DHT22;8820;54.604;18.226;2023-10-31T11:36:43;15.00;99.90
17405;DHT22;8820;54.604;18.226;2023-10-31T11:39:13;14.80;99.90
17405;DHT22;8820;54.604;18.226;2023-10-31T11:41:48;14.70;99.90
17405;DHT22;8820;54.604;18.226;2023-10-31T11:44:17;14.60;99.90
17405;DHT22;8820;54.604;18.226;2023-10-31T11:54:21;14.40;99.90
17405;DHT22;8820;54.604;18.226;2023-10-31T12:01:53;14.40;99.90
17405;DHT22;8820;54.604;18.226;2023-10-31T12:05:36;14.30;99.90
17405;DHT22;8820;54.604;18.226;2023-10-31T12:09:21;14.30;99.90
17405;DHT22;8820;54.604;18.226;2023-10-31T12:16:06;14.20;99.90
17405;DHT22;8820;54.604;18.226;2023-10-31T12:19:15;14.20;99.90
17405;DHT22;8820;54.604;18.226;2023-10-31T12:22:20;14.20;99.90
17405;DHT22;8820;54.604;18.226;2023-10-31T12:34:00;14.10;99.90
17405;DHT22;8820;54.604;18.226;2023-10-31T12:36:50;14.10;99.90
17405;DHT22;8820;54.604;18.226;2023-10-31T12:39:35;14.20;99.90
17405;DHT22;8820;54.604;18.226;2023-10-31T12:42:35;14.10;99.90
17405;DHT22;8820;54.604;18.226;2023-10-31T12:45:35;14.20;99.90
17405;DHT22;8820;54.604;18.226;2023-10-31T12:48:54;14.10;99.90
17405;DHT22;8820;54.604;18.226;2023-10-31T13:00:00;13.90;99.90
17405;DHT22;8820;54.604;18.226;2023-10-31T13:06:12;13.70;99.90
17405;DHT22;8820;54.604;18.226;2023-10-31T13:09:04;13.80;99.90
17405;DHT22;8820;54.604;18.226;2023-10-31T13:18:02;13.80;99.90
17405;DHT22;8820;54.604;18.226;2023-10-31T13:27:30;13.90;99.90
17405;DHT22;8820;54.604;18.226;2023-10-31T13:30:02;13.90;99.90
17405;DHT22;8820;54.604;18.226;2023-10-31T13:51:08;14.00;99.90
17405;DHT22;8820;54.604;18.226;2023-10-31T13:53:40;14.00;99.90
17405;DHT22;8820;54.604;18.226;2023-10-31T13:57:02;14.00;99.90
17405;DHT22;8820;54.604;18.226;2023-10-31T14:03:46;14.00;99.90
17405;DHT22;8820;54.604;18.226;2023-10-31T14:06:51;13.90;99.90
17405;DHT22;8820;54.604;18.226;2023-10-31T14:36:33;13.70;99.90
17405;DHT22;8820;54.604;18.226;2023-10-31T14:39:02;13.70;99.90
17405;DHT22;8820;54.604;18.226;2023-10-31T14:49:28;13.70;99.90
17405;DHT22;8820;54.604;18.226;2023-10-31T14:52:26;13.70;99.90
17405;DHT22;8820;54.604;18.226;2023-10-31T14:54:55;13.70;99.90
17405;DHT22;8820;54.604;18.226;2023-10-31T15:01:15;13.70;99.90
17405;DHT22;8820;54.604;18.226;2023-10-31T15:04:12;13.70;99.90
17405;DHT22;8820;54.604;18.226;2023-10-31T15:07:02;13.70;99.90
17405;DHT22;8820;54.604;18.226;2023-10-31T15:09:32;13.70;99.90
17405;DHT22;8820;54.604;18.226;2023-10-31T15:12:00;13.70;99.90
17405;DHT22;8820;54.604;18.226;2023-10-31T15:14:28;13.80;99.90
17405;DHT22;8820;54.604;18.226;2023-10-31T15:16:56;13.70;99.90
17405;DHT22;8820;54.604;18.226;2023-10-31T15:19:25;13.70;99.90
17405;DHT22;8820;54.604;18.226;2023-10-31T15:21:53;13.70;99.90
17405;DHT22;8820;54.604;18.226;2023-10-31T15:24:21;13.70;99.90
17405;DHT22;8820;54.604;18.226;2023-10-31T15:26:51;13.70;99.90
17405;DHT22;8820;54.604;18.226;2023-10-31T15:29:19;13.70;99.90
17405;DHT22;8820;54.604;18.226;2023-10-31T15:31:48;13.70;99.90
17405;DHT22;8820;54.604;18.226;2023-10-31T15:34:20;13.60;99.90
17405;DHT22;8820;54.604;18.226;2023-10-31T15:36:49;13.60;99.90
17405;DHT22;8820;54.604;18.226;2023-10-31T15:39:17;13.70;99.90
17405;DHT22;8820;54.604;18.226;2023-10-31T15:41:46;13.70;99.90
17405;DHT22;8820;54.604;18.226;2023-10-31T15:44:15;13.70;99.90
17405;DHT22;8820;54.604;18.226;2023-10-31T15:46:44;13.80;99.90
17405;DHT22;8820;54.604;18.226;2023-10-31T15:49:12;13.80;99.90
17405;DHT22;8820;54.604;18.226;2023-10-31T15:51:41;13.80;99.90
17405;DHT22;8820;54.604;18.226;2023-10-31T15:54:09;13.70;99.90
17405;DHT22;8820;54.604;18.226;2023-10-31T15:56:37;13.70;99.90
17405;DHT22;8820;54.604;18.226;2023-10-31T15:59:06;13.50;99.90
17405;DHT22;8820;54.604;18.226;2023-10-31T16:01:35;13.30;99.90
17405;DHT22;8820;54.604;18.226;2023-10-31T16:04:04;13.30;99.90
17405;DHT22;8820;54.604;18.226;2023-10-31T16:06:32;13.30;99.90
17405;DHT22;8820;54.604;18.226;2023-10-31T16:09:01;13.30;99.90
17405;DHT22;8820;54.604;18.226;2023-10-31T16:11:30;13.20;99.90
17405;DHT22;8820;54.604;18.226;2023-10-31T16:13:59;13.00;99.90
17405;DHT22;8820;54.604;18.226;2023-10-31T16:16:28;12.80;99.90
17405;DHT22;8820;54.604;18.226;2023-10-31T16:18:57;12.80;99.90
17405;DHT22;8820;54.604;18.226;2023-10-31T16:21:26;12.90;99.90
17405;DHT22;8820;54.604;18.226;2023-10-31T16:23:55;12.80;99.90
17405;DHT22;8820;54.604;18.226;2023-10-31T16:26:25;12.80;99.90
17405;DHT22;8820;54.604;18.226;2023-10-31T16:28:53;12.70;99.90
17405;DHT22;8820;54.604;18.226;2023-10-31T16:31:23;12.70;99.90
17405;DHT22;8820;54.604;18.226;2023-10-31T16:33:52;12.80;99.90
17405;DHT22;8820;54.604;18.226;2023-10-31T16:36:22;12.70;99.90
17405;DHT22;8820;54.604;18.226;2023-10-31T16:38:50;12.70;99.90
17405;DHT22;8820;54.604;18.226;2023-10-31T16:41:18;12.60;99.90
17405;DHT22;8820;54.604;18.226;2023-10-31T16:43:47;12.60;99.90
17405;DHT22;8820;54.604;18.226;2023-10-31T16:46:15;12.60;99.90
17405;DHT22;8820;54.604;18.226;2023-10-31T16:48:43;12.60;99.90
17405;DHT22;8820;54.604;18.226;2023-10-31T16:51:15;12.40;99.90
17405;DHT22;8820;54.604;18.226;2023-10-31T16:53:46;12.40;99.90
17405;DHT22;8820;54.604;18.226;2023-10-31T16:56:15;12.30;99.90
17405;DHT22;8820;54.604;18.226;2023-10-31T16:58:43;12.40;99.90
17405;DHT22;8820;54.604;18.226;2023-10-31T17:01:13;12.40;99.90
17405;DHT22;8820;54.604;18.226;2023-10-31T17:03:41;12.50;99.90
17405;DHT22;8820;54.604;18.226;2023-10-31T17:06:10;12.50;99.90
17405;DHT22;8820;54.604;18.226;2023-10-31T17:08:39;12.40;99.90
17405;DHT22;8820;54.604;18.226;2023-10-31T17:11:09;12.40;99.90
17405;DHT22;8820;54.604;18.226;2023-10-31T17:13:37;12.40;99.90
17405;DHT22;8820;54.604;18.226;2023-10-31T17:16:06;12.40;99.90
17405;DHT22;8820;54.604;18.226;2023-10-31T17:18:35;12.40;99.90
17405;DHT22;8820;54.604;18.226;2023-10-31T17:21:04;12.50;99.90
17405;DHT22;8820;54.604;18.226;2023-10-31T17:23:32;12.50;99.90
17405;DHT22;8820;54.604;18.226;2023-10-31T17:26:01;12.50;99.90
17405;DHT22;8820;54.604;18.226;2023-10-31T17:28:32;12.50;99.90
17405;DHT22;8820;54.604;18.226;2023-10-31T17:31:06;12.40;99.90
17405;DHT22;8820;54.604;18.226;2023-10-31T17:33:34;12.40;99.90
17405;DHT22;8820;54.604;18.226;2023-10-31T17:36:04;12.40;99.90
17405;DHT22;8820;54.604;18.226;2023-10-31T17:38:32;12.40;99.90
17405;DHT22;8820;54.604;18.226;2023-10-31T17:41:01;12.40;99.90
17405;DHT22;8820;54.604;18.226;2023-10-31T17:43:29;12.30;99.90
17405;DHT22;8820;54.604;18.226;2023-10-31T17:45:59;12.30;99.90
17405;DHT22;8820;54.604;18.226;2023-10-31T17:48:27;12.30;99.90
17405;DHT22;8820;54.604;18.226;2023-10-31T17:50:56;12.30;99.90
17405;DHT22;8820;54.604;18.226;2023-10-31T17:53:25;12.20;99.90
17405;DHT22;8820;54.604;18.226;2023-10-31T17:55:53;12.20;99.90
17405;DHT22;8820;54.604;18.226;2023-10-31T17:58:21;12.30;99.90
17405;DHT22;8820;54.604;18.226;2023-10-31T18:00:50;12.30;99.90
17405;DHT22;8820;54.604;18.226;2023-10-31T18:03:20;12.30;99.90
17405;DHT22;8820;54.604;18.226;2023-10-31T18:05:48;12.30;99.90
17405;DHT22;8820;54.604;18.226;2023-10-31T18:08:17;12.20;99.90
17405;DHT22;8820;54.604;18.226;2023-10-31T18:10:45;12.20;99.90
17405;DHT22;8820;54.604;18.226;2023-10-31T18:13:13;12.20;99.90
17405;DHT22;8820;54.604;18.226;2023-10-31T18:15:42;12.30;99.90
17405;DHT22;8820;54.604;18.226;2023-10-31T18:18:10;12.30;99.90
17405;DHT22;8820;54.604;18.226;2023-10-31T18:20:40;12.30;99.90
17405;DHT22;8820;54.604;18.226;2023-10-31T18:23:08;12.30;99.90
17405;DHT22;8820;54.604;18.226;2023-10-31T18:25:37;12.20;99.90
17405;DHT22;8820;54.604;18.226;2023-10-31T18:28:05;12.30;99.90
17405;DHT22;8820;54.604;18.226;2023-10-31T18:30:33;12.30;99.90
17405;DHT22;8820;54.604;18.226;2023-10-31T18:33:03;12.30;99.90
17405;DHT22;8820;54.604;18.226;2023-10-31T18:35:32;12.00;99.90
17405;DHT22;8820;54.604;18.226;2023-10-31T18:38:02;12.10;99.90
17405;DHT22;8820;54.604;18.226;2023-10-31T18:40:30;12.00;99.90
17405;DHT22;8820;54.604;18.226;2023-10-31T18:42:59;11.90;99.90
17405;DHT22;8820;54.604;18.226;2023-10-31T18:45:28;12.00;99.90
17405;DHT22;8820;54.604;18.226;2023-10-31T18:47:56;11.90;99.90
17405;DHT22;8820;54.604;18.226;2023-10-31T18:50:25;11.90;99.90
17405;DHT22;8820;54.604;18.226;2023-10-31T18:52:54;11.90;99.90
17405;DHT22;8820;54.604;18.226;2023-10-31T18:55:24;11.80;99.90
17405;DHT22;8820;54.604;18.226;2023-10-31T18:57:52;11.80;99.90
17405;DHT22;8820;54.604;18.226;2023-10-31T19:00:20;11.80;99.90
17405;DHT22;8820;54.604;18.226;2023-10-31T19:02:49;11.80;99.90
17405;DHT22;8820;54.604;18.226;2023-10-31T19:05:17;11.70;99.90
17405;DHT22;8820;54.604;18.226;2023-10-31T19:07:46;11.70;99.90
17405;DHT22;8820;54.604;18.226;2023-10-31T19:10:14;11.70;99.90
17405;DHT22;8820;54.604;18.226;2023-10-31T19:12:44;11.80;99.90
17405;DHT22;8820;54.604;18.226;2023-10-31T19:15:12;11.80;99.90
17405;DHT22;8820;54.604;18.226;2023-10-31T19:17:41;11.80;99.90
17405;DHT22;8820;54.604;18.226;2023-10-31T19:20:11;11.80;99.90
17405;DHT22;8820;54.604;18.226;2023-10-31T19:22:39;11.70;99.90
17405;DHT22;8820;54.604;18.226;2023-10-31T19:25:08;11.80;99.90
17405;DHT22;8820;54.604;18.226;2023-10-31T19:27:36;11.80;99.90
17405;DHT22;8820;54.604;18.226;2023-10-31T19:30:07;11.70;99.90
17405;DHT22;8820;54.604;18.226;2023-10-31T19:32:36;11.60;99.90
17405;DHT22;8820;54.604;18.226;2023-10-31T19:35:05;11.70;99.90
17405;DHT22;8820;54.604;18.226;2023-10-31T19:37:36;11.70;99.90
17405;DHT22;8820;54.604;18.226;2023-10-31T19:40:07;11.70;99.90
17405;DHT22;8820;54.604;18.226;2023-10-31T19:42:35;11.70;99.90
17405;DHT22;8820;54.604;18.226;2023-10-31T19:45:06;11.50;99.90
17405;DHT22;8820;54.604;18.226;2023-10-31T19:47:35;11.60;99.90
17405;DHT22;8820;54.604;18.226;2023-10-31T19:50:04;11.50;99.90
17405;DHT22;8820;54.604;18.226;2023-10-31T19:52:33;11.60;99.90
17405;DHT22;8820;54.604;18.226;2023-10-31T19:55:01;11.60;99.90
17405;DHT22;8820;54.604;18.226;2023-10-31T19:57:30;11.70;99.90
17405;DHT22;8820;54.604;18.226;2023-10-31T19:59:58;11.60;99.90
17405;DHT22;8820;54.604;18.226;2023-10-31T20:02:28;11.60;99.90
17405;DHT22;8820;54.604;18.226;2023-10-31T20:04:56;11.60;99.90
17405;DHT22;8820;54.604;18.226;2023-10-31T20:07:24;11.60;99.90
17405;DHT22;8820;54.604;18.226;2023-10-31T20:09:54;11.60;99.90
17405;DHT22;8820;54.604;18.226;2023-10-31T20:12:22;11.50;99.90
17405;DHT22;8820;54.604;18.226;2023-10-31T20:14:51;11.50;99.90
17405;DHT22;8820;54.604;18.226;2023-10-31T20:17:24;11.50;99.90
17405;DHT22;8820;54.604;18.226;2023-10-31T20:19:55;11.40;99.90
17405;DHT22;8820;54.604;18.226;2023-10-31T20:22:23;11.30;99.90
17405;DHT22;8820;54.604;18.226;2023-10-31T20:24:51;11.20;99.90
17405;DHT22;8820;54.604;18.226;2023-10-31T20:27:21;11.10;99.90
17405;DHT22;8820;54.604;18.226;2023-10-31T20:29:50;11.10;99.90
17405;DHT22;8820;54.604;18.226;2023-10-31T20:32:18;11.00;99.90
17405;DHT22;8820;54.604;18.226;2023-10-31T20:34:51;11.10;99.90
17405;DHT22;8820;54.604;18.226;2023-10-31T20:37:20;11.00;99.90
17405;DHT22;8820;54.604;18.226;2023-10-31T20:39:49;11.00;99.90
17405;DHT22;8820;54.604;18.226;2023-10-31T20:42:17;10.80;99.90
17405;DHT22;8820;54.604;18.226;2023-10-31T20:44:45;10.80;99.90
17405;DHT22;8820;54.604;18.226;2023-10-31T20:47:14;10.80;99.90
17405;DHT22;8820;54.604;18.226;2023-10-31T20:49:43;10.80;99.90
17405;DHT22;8820;54.604;18.226;2023-10-31T20:52:11;10.60;99.90
17405;DHT22;8820;54.604;18.226;2023-10-31T20:54:41;10.60;99.90
17405;DHT22;8820;54.604;18.226;2023-10-31T20:57:10;10.60;99.90
17405;DHT22;8820;54.604;18.226;2023-10-31T20:59:41;10.50;99.90
17405;DHT22;8820;54.604;18.226;2023-10-31T21:02:10;10.50;99.90
17405;DHT22;8820;54.604;18.226;2023-10-31T21:04:38;10.40;99.90
17405;DHT22;8820;54.604;18.226;2023-10-31T21:07:07;10.40;99.90
17405;DHT22;8820;54.604;18.226;2023-10-31T21:09:35;10.40;99.90
17405;DHT22;8820;54.604;18.226;2023-10-31T21:12:06;10.40;99.90
17405;DHT22;8820;54.604;18.226;2023-10-31T21:14:34;10.40;99.90
17405;DHT22;8820;54.604;18.226;2023-10-31T21:17:03;10.30;99.90